Time;durP1;ratioP1;P1;durP2;ratioP2;P2;SDS_P1;SDS_P2;PMS_P1;PMS_P2;Temp;Humidity;BMP_temperature;BMP_pressure;BME280_temperature;BME280_humidity;BME280_pressure;Samples;Min_cycle;Max_cycle;Signal;HPM_P1;HPM_P2
2020/12/19 00:02:09;;;;;;;29.65;16.27;;;6.30;99.90;;;;;;5062970;28;20025;-72
2020/12/19 00:04:35;;;;;;;30.67;16.33;;;6.20;99.90;;;;;;5058469;28;20056;-72
2020/12/19 00:07:01;;;;;;;28.25;15.38;;;6.20;99.90;;;;;;5056735;28;20108;-72
2020/12/19 00:09:27;;;;;;;41.30;19.48;;;6.10;99.90;;;;;;5058525;28;20028;-72
2020/12/19 00:11:53;;;;;;;32.35;17.00;;;6.10;99.90;;;;;;5055587;28;20032;-71
2020/12/19 00:14:20;;;;;;;27.75;17.33;;;6.10;99.90;;;;;;5057617;28;20136;-71
2020/12/19 00:16:46;;;;;;;30.92;17.10;;;6.10;99.90;;;;;;5055410;28;20021;-71
2020/12/19 00:19:11;;;;;;;27.08;16.85;;;6.10;99.90;;;;;;5055674;28;20380;-71
2020/12/19 00:21:37;;;;;;;34.75;18.75;;;6.10;99.90;;;;;;5057093;28;20082;-71
2020/12/19 00:24:04;;;;;;;27.10;17.40;;;6.00;99.90;;;;;;5055857;28;20025;-71
2020/12/19 00:26:41;;;;;;;38.20;19.40;;;5.90;99.90;;;;;;5055098;28;20017;-72
2020/12/19 00:29:09;;;;;;;26.92;16.80;;;5.90;99.90;;;;;;5060496;28;20068;-72
2020/12/19 00:31:35;;;;;;;27.38;16.25;;;5.90;99.90;;;;;;5060308;28;20025;-72
2020/12/19 00:34:02;;;;;;;28.20;17.83;;;5.80;99.90;;;;;;5057595;28;20025;-72
2020/12/19 00:36:28;;;;;;;27.98;16.33;;;5.90;99.90;;;;;;5054775;28;20072;-72
2020/12/19 00:38:54;;;;;;;27.63;17.80;;;5.90;99.90;;;;;;5051966;28;20032;-72
2020/12/19 00:41:22;;;;;;;31.23;18.08;;;5.80;99.90;;;;;;5059371;28;20083;-71
2020/12/19 00:43:48;;;;;;;29.05;16.77;;;5.70;99.90;;;;;;5050016;28;20029;-72
2020/12/19 00:46:16;;;;;;;27.33;16.20;;;5.70;99.90;;;;;;5054796;28;20091;-71
2020/12/19 00:48:42;;;;;;;30.27;17.50;;;5.60;99.90;;;;;;5052318;28;20029;-72
2020/12/19 00:51:19;;;;;;;40.88;19.73;;;5.70;99.90;;;;;;5053871;28;20017;-71
2020/12/19 00:53:47;;;;;;;25.10;15.60;;;5.60;99.90;;;;;;5057890;28;20067;-71
2020/12/19 00:56:21;;;;;;;30.23;18.58;;;5.70;99.90;;;;;;5055092;28;20024;-72
2020/12/19 00:58:47;;;;;;;32.25;17.50;;;5.70;99.90;;;;;;5053069;28;20039;-72
2020/12/19 01:01:15;;;;;;;35.13;18.52;;;5.70;99.90;;;;;;5055865;28;20121;-72
2020/12/19 01:03:41;;;;;;;36.47;18.02;;;5.60;99.90;;;;;;5052851;28;20115;-72
2020/12/19 01:06:08;;;;;;;29.25;17.67;;;5.60;99.90;;;;;;5057929;28;20100;-72
2020/12/19 01:08:33;;;;;;;36.55;20.58;;;5.60;99.90;;;;;;5052642;28;20410;-72
2020/12/19 01:10:59;;;;;;;40.17;19.02;;;5.40;99.90;;;;;;5052399;28;20111;-72
2020/12/19 01:13:25;;;;;;;30.33;18.23;;;5.40;99.90;;;;;;5055261;28;20032;-72
2020/12/19 01:15:51;;;;;;;38.95;20.30;;;5.40;99.90;;;;;;5052761;28;20056;-72
2020/12/19 01:18:19;;;;;;;34.15;19.85;;;5.40;99.90;;;;;;5054129;28;20032;-71
2020/12/19 01:20:46;;;;;;;34.22;18.85;;;5.50;99.90;;;;;;5051515;28;20025;-72
2020/12/19 01:23:11;;;;;;;37.67;20.50;;;5.40;99.90;;;;;;5055113;28;20032;-71
2020/12/19 01:25:37;;;;;;;33.10;19.65;;;5.40;99.90;;;;;;5055627;28;20009;-72
2020/12/19 01:28:03;;;;;;;38.90;20.15;;;5.50;99.90;;;;;;5049375;28;20097;-72
2020/12/19 01:30:28;;;;;;;42.17;21.23;;;5.50;99.90;;;;;;5051225;28;20100;-72
2020/12/19 01:32:54;;;;;;;47.60;23.88;;;5.40;99.90;;;;;;5051641;28;20021;-72
2020/12/19 01:35:20;;;;;;;44.67;22.45;;;5.40;99.90;;;;;;5056076;28;20038;-72
2020/12/19 01:37:46;;;;;;;47.20;24.75;;;5.40;99.90;;;;;;5057785;28;20096;-72
2020/12/19 01:40:11;;;;;;;36.60;20.25;;;5.50;99.90;;;;;;5057761;28;20025;-72
2020/12/19 01:42:37;;;;;;;43.53;23.23;;;5.50;99.90;;;;;;5054368;28;20580;-72
2020/12/19 01:45:04;;;;;;;49.00;24.55;;;5.50;99.90;;;;;;5055488;28;20025;-72
2020/12/19 01:47:32;;;;;;;43.58;23.48;;;5.50;99.90;;;;;;5054437;28;20037;-72
2020/12/19 01:49:58;;;;;;;41.65;21.13;;;5.50;99.90;;;;;;5053445;28;20017;-72
2020/12/19 01:52:27;;;;;;;43.58;23.05;;;5.50;99.90;;;;;;5051491;28;20432;-72
2020/12/19 01:54:53;;;;;;;44.55;19.33;;;5.50;99.90;;;;;;5050549;28;20036;-72
2020/12/19 01:57:21;;;;;;;48.08;20.52;;;5.50;99.90;;;;;;5055922;28;20031;-72
2020/12/19 01:59:47;;;;;;;44.85;22.77;;;5.30;99.90;;;;;;5050581;28;20063;-72
2020/12/19 02:02:16;;;;;;;48.35;22.92;;;5.30;99.90;;;;;;5054859;28;20044;-72
2020/12/19 02:04:42;;;;;;;53.28;25.25;;;5.40;99.90;;;;;;5051413;28;20028;-72
2020/12/19 02:07:08;;;;;;;41.13;22.33;;;5.40;99.90;;;;;;5048819;28;20029;-72
2020/12/19 02:09:39;;;;;;;49.17;25.15;;;5.40;99.90;;;;;;5053080;28;20044;-72
2020/12/19 02:12:06;;;;;;;51.50;23.13;;;5.40;99.90;;;;;;5052312;28;20642;-71
2020/12/19 02:14:32;;;;;;;53.75;24.55;;;5.50;99.90;;;;;;5051492;28;20025;-72
2020/12/19 02:17:00;;;;;;;51.63;22.58;;;5.50;99.90;;;;;;5049680;28;20057;-72
2020/12/19 02:19:27;;;;;;;45.88;22.70;;;5.50;99.90;;;;;;5052620;28;20099;-72
2020/12/19 02:21:53;;;;;;;40.08;21.58;;;5.50;99.90;;;;;;5051741;28;20021;-72
2020/12/19 02:24:19;;;;;;;39.53;21.55;;;5.50;99.90;;;;;;5051326;28;20025;-71
2020/12/19 02:26:46;;;;;;;53.80;23.55;;;5.40;99.90;;;;;;5050676;28;20735;-71
2020/12/19 02:29:12;;;;;;;37.22;21.35;;;5.40;99.90;;;;;;5049862;28;20036;-71
2020/12/19 02:31:37;;;;;;;41.40;19.90;;;5.40;99.90;;;;;;5054643;28;20025;-72
2020/12/19 02:34:03;;;;;;;50.17;24.00;;;5.40;99.90;;;;;;5048574;28;20040;-72
2020/12/19 02:36:29;;;;;;;46.00;23.40;;;5.50;99.90;;;;;;5051149;28;20069;-72
2020/12/19 02:38:54;;;;;;;55.53;27.90;;;5.40;99.90;;;;;;5050410;28;20029;-72
2020/12/19 02:41:20;;;;;;;50.58;25.38;;;5.50;99.90;;;;;;5050485;28;20044;-72
2020/12/19 02:43:56;;;;;;;49.38;23.75;;;5.50;99.90;;;;;;5049912;28;20021;-72
2020/12/19 02:46:23;;;;;;;48.28;22.27;;;5.50;99.90;;;;;;5051979;28;20013;-72
2020/12/19 02:48:49;;;;;;;43.95;21.55;;;5.40;99.90;;;;;;5050034;28;20690;-72
2020/12/19 02:51:15;;;;;;;40.00;20.17;;;5.40;99.90;;;;;;5050238;28;20031;-72
2020/12/19 02:53:41;;;;;;;49.35;25.13;;;5.40;99.90;;;;;;5050653;28;20025;-72
2020/12/19 02:56:07;;;;;;;48.67;22.13;;;5.40;99.90;;;;;;5049871;28;20024;-72
2020/12/19 02:58:33;;;;;;;35.72;20.10;;;5.30;99.90;;;;;;5050296;28;20040;-72
2020/12/19 03:01:00;;;;;;;47.33;25.25;;;5.30;99.90;;;;;;5050658;28;20044;-72
2020/12/19 03:03:26;;;;;;;42.10;21.23;;;5.40;99.90;;;;;;5049130;28;20036;-72
2020/12/19 03:05:51;;;;;;;36.05;19.88;;;5.30;99.90;;;;;;5059812;28;20029;-72
2020/12/19 03:08:17;;;;;;;42.17;21.45;;;5.30;99.90;;;;;;5048483;28;20068;-71
2020/12/19 03:10:43;;;;;;;40.58;20.25;;;5.20;99.90;;;;;;5051965;28;20017;-71
2020/12/19 03:13:09;;;;;;;41.10;20.95;;;5.20;99.90;;;;;;5052479;28;20121;-71
2020/12/19 03:15:34;;;;;;;40.42;19.60;;;5.20;99.90;;;;;;5049556;28;20124;-71
2020/12/19 03:18:00;;;;;;;48.17;20.35;;;5.10;99.90;;;;;;5049510;28;20032;-71
2020/12/19 03:20:26;;;;;;;39.97;19.95;;;5.10;99.90;;;;;;5050770;28;20367;-71
2020/12/19 03:22:51;;;;;;;45.80;21.50;;;5.00;99.90;;;;;;5049540;28;20025;-72
2020/12/19 03:25:17;;;;;;;57.20;27.15;;;5.10;99.90;;;;;;5052059;28;20108;-72
2020/12/19 03:27:42;;;;;;;64.07;28.65;;;5.20;99.90;;;;;;5050496;28;20033;-72
2020/12/19 03:30:08;;;;;;;51.00;21.85;;;5.30;99.90;;;;;;5049140;28;20025;-72
2020/12/19 03:32:34;;;;;;;60.67;27.60;;;5.20;99.90;;;;;;5051243;28;20083;-72
2020/12/19 03:34:59;;;;;;;59.80;26.38;;;5.20;99.90;;;;;;5049190;28;20021;-71
2020/12/19 03:37:25;;;;;;;52.90;22.42;;;5.30;99.90;;;;;;5049096;28;20111;-72
2020/12/19 03:39:51;;;;;;;56.67;24.38;;;5.30;99.90;;;;;;5053853;28;20469;-71
2020/12/19 03:42:16;;;;;;;68.60;25.92;;;5.20;99.90;;;;;;5052041;28;20033;-72
2020/12/19 03:44:42;;;;;;;56.03;23.15;;;5.30;99.90;;;;;;5053218;28;20443;-71
2020/12/19 03:47:08;;;;;;;57.30;24.63;;;5.20;99.90;;;;;;5051428;28;20025;-72
2020/12/19 03:49:33;;;;;;;59.50;26.45;;;5.30;99.90;;;;;;5053737;28;20056;-72
2020/12/19 03:51:59;;;;;;;60.30;26.02;;;5.40;99.90;;;;;;5057200;28;20033;-72
2020/12/19 03:54:24;;;;;;;62.47;27.35;;;5.40;99.90;;;;;;5065922;28;20489;-71
2020/12/19 03:56:50;;;;;;;65.95;27.63;;;5.40;99.90;;;;;;5054384;28;20049;-71
2020/12/19 03:59:16;;;;;;;62.45;26.92;;;5.40;99.90;;;;;;5056792;28;20025;-71
2020/12/19 04:01:41;;;;;;;83.43;29.88;;;5.40;99.90;;;;;;5056756;28;20025;-72
2020/12/19 04:04:08;;;;;;;38.95;21.30;;;5.40;99.90;;;;;;5063609;28;20485;-71
2020/12/19 04:06:34;;;;;;;63.33;24.27;;;5.40;99.90;;;;;;5058249;28;20017;-71
2020/12/19 04:08:59;;;;;;;69.25;25.17;;;5.30;99.90;;;;;;5051320;28;20043;-71
2020/12/19 04:11:25;;;;;;;48.45;23.52;;;5.30;99.90;;;;;;5053136;28;20029;-71
2020/12/19 04:13:51;;;;;;;66.13;27.38;;;5.30;99.90;;;;;;5053878;28;20071;-71
2020/12/19 04:16:16;;;;;;;49.45;23.17;;;5.30;99.90;;;;;;5052860;28;20545;-71
2020/12/19 04:18:42;;;;;;;50.45;23.48;;;5.30;99.90;;;;;;5053943;28;20031;-71
2020/12/19 04:21:08;;;;;;;41.58;20.55;;;5.30;99.90;;;;;;5058860;28;20025;-71
2020/12/19 04:23:34;;;;;;;58.90;24.38;;;5.20;99.90;;;;;;5066701;28;20021;-71
2020/12/19 04:26:00;;;;;;;62.28;25.60;;;5.30;99.90;;;;;;5061135;28;20367;-71
2020/12/19 04:28:28;;;;;;;51.20;24.10;;;5.20;99.90;;;;;;5053629;28;20033;-71
2020/12/19 04:30:54;;;;;;;48.28;22.73;;;5.20;99.90;;;;;;5053651;28;20025;-71
2020/12/19 04:33:20;;;;;;;60.13;25.65;;;5.30;99.90;;;;;;5059588;28;20549;-71
2020/12/19 04:35:46;;;;;;;49.50;22.42;;;5.30;99.90;;;;;;5051980;28;20390;-70
2020/12/19 04:38:11;;;;;;;44.67;22.45;;;5.20;99.90;;;;;;5052548;28;20033;-71
2020/12/19 04:40:37;;;;;;;47.42;21.35;;;5.20;99.90;;;;;;5053515;28;20806;-71
2020/12/19 04:43:15;;;;;;;41.22;21.15;;;5.10;99.90;;;;;;5053600;28;20033;-71
2020/12/19 04:45:42;;;;;;;56.33;22.20;;;5.10;99.90;;;;;;5053955;28;20039;-71
2020/12/19 04:48:08;;;;;;;66.93;26.20;;;5.10;99.90;;;;;;5055776;28;20036;-71
2020/12/19 04:50:38;;;;;;;58.15;25.35;;;5.10;99.90;;;;;;5051339;28;20072;-71
2020/12/19 04:53:18;;;;;;;69.65;25.35;;;5.20;99.90;;;;;;5052092;28;20065;-71
2020/12/19 04:55:44;;;;;;;68.82;25.25;;;5.10;99.90;;;;;;5052924;28;20017;-71
2020/12/19 04:58:12;;;;;;;46.83;23.33;;;5.20;99.90;;;;;;5054077;28;20086;-71
2020/12/19 05:00:39;;;;;;;42.15;20.88;;;5.20;99.90;;;;;;5054982;28;20009;-71
2020/12/19 05:03:05;;;;;;;52.72;23.08;;;5.20;99.90;;;;;;5054930;28;20033;-71
2020/12/19 05:05:30;;;;;;;61.00;27.52;;;5.20;99.90;;;;;;5053629;28;20031;-70
2020/12/19 05:07:56;;;;;;;65.70;25.83;;;5.20;99.90;;;;;;5050958;28;20489;-70
2020/12/19 05:10:22;;;;;;;61.75;27.40;;;5.20;99.90;;;;;;5060295;28;20020;-70
2020/12/19 05:12:52;;;;;;;69.10;27.13;;;5.30;99.90;;;;;;5051329;28;20029;-71
2020/12/19 05:15:19;;;;;;;64.05;27.02;;;5.40;99.90;;;;;;5051121;28;20036;-71
2020/12/19 05:17:54;;;;;;;55.50;23.23;;;5.30;99.90;;;;;;5052911;28;20032;-71
2020/12/19 05:20:22;;;;;;;62.75;26.05;;;5.30;99.90;;;;;;5052944;28;20025;-71
2020/12/19 05:22:49;;;;;;;64.35;27.42;;;5.30;99.90;;;;;;5050466;28;20029;-71
2020/12/19 05:25:19;;;;;;;56.17;24.73;;;5.30;99.90;;;;;;5053438;28;20090;-71
2020/12/19 05:27:46;;;;;;;61.05;24.75;;;5.30;99.90;;;;;;5051643;28;20035;-71
2020/12/19 05:30:17;;;;;;;65.32;24.02;;;5.20;99.90;;;;;;5051019;28;20025;-71
2020/12/19 05:32:51;;;;;;;62.92;25.63;;;5.10;99.90;;;;;;5053703;28;20021;-71
2020/12/19 05:35:18;;;;;;;51.80;23.60;;;5.20;99.90;;;;;;5052180;28;20024;-71
2020/12/19 05:37:59;;;;;;;56.83;25.58;;;5.30;99.90;;;;;;5051674;28;20021;-71
2020/12/19 05:40:26;;;;;;;54.35;23.52;;;5.40;99.90;;;;;;5051038;28;20032;-71
2020/12/19 05:42:52;;;;;;;68.15;26.48;;;5.40;99.90;;;;;;5052684;28;20025;-71
2020/12/19 05:45:21;;;;;;;67.13;24.67;;;5.30;99.90;;;;;;5052992;28;20070;-71
2020/12/19 05:47:48;;;;;;;65.10;26.63;;;5.20;99.90;;;;;;5051429;28;20032;-71
2020/12/19 05:50:14;;;;;;;54.15;22.92;;;5.20;99.90;;;;;;5051436;28;20024;-71
2020/12/19 05:52:40;;;;;;;62.38;23.70;;;5.10;99.90;;;;;;5051284;28;20021;-71
2020/12/19 05:55:09;;;;;;;57.22;24.00;;;5.20;99.90;;;;;;5050104;28;20086;-71
2020/12/19 05:57:36;;;;;;;56.35;22.20;;;5.20;99.90;;;;;;5051718;28;20489;-71
2020/12/19 06:00:06;;;;;;;57.95;25.17;;;5.10;99.90;;;;;;5051734;28;20055;-71
2020/12/19 06:02:34;;;;;;;63.70;24.73;;;5.20;99.90;;;;;;5050430;28;20094;-71
2020/12/19 06:05:01;;;;;;;65.13;28.48;;;5.20;99.90;;;;;;5051033;28;20555;-71
2020/12/19 06:07:35;;;;;;;56.72;27.27;;;5.30;99.90;;;;;;5051231;28;20033;-71
2020/12/19 06:10:01;;;;;;;57.05;23.65;;;5.40;99.90;;;;;;5054499;28;20047;-71
2020/12/19 06:12:55;;;;;;;56.38;24.77;;;5.30;99.90;;;;;;5049185;28;20048;-71
2020/12/19 06:15:38;;;;;;;63.42;26.45;;;5.40;99.90;;;;;;5053187;28;20029;-71
2020/12/19 06:18:39;;;;;;;63.10;25.48;;;5.50;99.90;;;;;;5051222;28;20083;-71
2020/12/19 06:21:10;;;;;;;58.38;24.45;;;5.40;99.90;;;;;;5041421;28;20083;-71
2020/12/19 06:23:37;;;;;;;81.75;28.30;;;5.40;99.90;;;;;;5053254;28;20021;-71
2020/12/19 06:26:03;;;;;;;58.40;25.13;;;5.40;99.90;;;;;;5051739;28;20025;-71
2020/12/19 06:28:49;;;;;;;55.65;24.15;;;5.40;99.90;;;;;;5060679;28;20440;-71
2020/12/19 06:31:22;;;;;;;61.90;26.67;;;5.40;99.90;;;;;;5051208;28;20413;-71
2020/12/19 06:33:49;;;;;;;57.55;25.38;;;5.40;99.90;;;;;;5053651;28;20063;-71
2020/12/19 06:36:19;;;;;;;59.72;23.90;;;5.40;99.90;;;;;;5050526;28;20062;-71
2020/12/19 06:38:56;;;;;;;65.18;27.30;;;5.40;99.90;;;;;;5051762;28;20025;-71
2020/12/19 06:41:58;;;;;;;51.15;22.75;;;5.50;99.90;;;;;;5050334;28;20553;-71
2020/12/19 06:44:24;;;;;;;63.45;27.70;;;5.40;99.90;;;;;;5057674;28;20025;-71
2020/12/19 06:46:51;;;;;;;69.32;27.92;;;5.40;99.90;;;;;;5056077;28;20053;-71
2020/12/19 06:49:23;;;;;;;63.55;27.42;;;5.40;99.90;;;;;;5052944;28;20520;-71
2020/12/19 06:52:00;;;;;;;64.57;25.95;;;5.40;99.90;;;;;;5052253;28;20029;-71
2020/12/19 06:54:30;;;;;;;59.25;27.20;;;5.40;99.90;;;;;;5052236;28;20020;-71
2020/12/19 06:56:56;;;;;;;55.95;27.23;;;5.40;99.90;;;;;;5048977;28;20021;-71
2020/12/19 06:59:23;;;;;;;61.95;25.73;;;5.50;99.90;;;;;;5050385;28;20025;-71
2020/12/19 07:01:49;;;;;;;61.00;28.02;;;5.50;99.90;;;;;;5049420;28;20025;-71
2020/12/19 07:04:34;;;;;;;59.80;25.98;;;5.50;99.90;;;;;;5051256;28;20649;-71
2020/12/19 07:07:11;;;;;;;57.00;23.88;;;5.50;99.90;;;;;;5051707;28;20021;-71
2020/12/19 07:09:37;;;;;;;72.28;25.25;;;5.50;99.90;;;;;;5050577;28;20029;-71
2020/12/19 07:12:04;;;;;;;48.00;23.60;;;5.40;99.90;;;;;;5052453;28;20151;-71
2020/12/19 07:14:40;;;;;;;49.92;23.65;;;5.40;99.90;;;;;;5053309;28;20021;-71
2020/12/19 07:17:18;;;;;;;56.47;23.95;;;5.40;99.90;;;;;;5053725;28;20120;-71
2020/12/19 07:19:59;;;;;;;54.30;27.20;;;5.50;99.90;;;;;;5055380;28;20486;-71
2020/12/19 07:22:25;;;;;;;58.65;25.83;;;5.50;99.90;;;;;;5055608;28;20036;-71
2020/12/19 07:24:54;;;;;;;54.33;26.85;;;5.60;99.90;;;;;;5053477;28;20031;-71
2020/12/19 07:27:21;;;;;;;54.60;25.67;;;5.60;99.90;;;;;;5054406;28;20025;-71
2020/12/19 07:29:47;;;;;;;58.83;25.88;;;5.60;99.90;;;;;;5054217;28;20099;-72
2020/12/19 07:32:13;;;;;;;57.65;25.60;;;5.60;99.90;;;;;;5053437;28;20029;-71
2020/12/19 07:34:39;;;;;;;50.50;23.33;;;5.70;99.90;;;;;;5056309;28;20029;-71
2020/12/19 07:37:06;;;;;;;60.45;25.13;;;5.70;99.90;;;;;;5053915;28;20037;-71
2020/12/19 07:39:32;;;;;;;57.60;24.55;;;5.60;99.90;;;;;;5053567;28;20074;-71
2020/12/19 07:42:05;;;;;;;56.63;23.33;;;5.50;99.90;;;;;;5059489;28;20029;-71
2020/12/19 07:44:30;;;;;;;;;;;5.50;99.90;;;;;;5056984;28;20477;-71
2020/12/19 07:47:10;;;;;;;52.03;23.10;;;5.50;99.90;;;;;;5055636;28;19959;-71
2020/12/19 07:49:37;;;;;;;54.83;24.08;;;5.50;99.90;;;;;;5053713;28;20037;-71
2020/12/19 07:52:06;;;;;;;62.08;23.83;;;5.50;99.90;;;;;;5053933;28;20025;-71
2020/12/19 07:54:32;;;;;;;61.03;25.17;;;5.50;99.90;;;;;;5053940;28;20033;-71
2020/12/19 07:56:58;;;;;;;72.35;26.38;;;5.60;99.90;;;;;;5051820;28;20513;-71
2020/12/19 07:59:25;;;;;;;60.38;26.95;;;5.50;99.90;;;;;;5054941;28;20040;-71
2020/12/19 08:01:51;;;;;;;64.75;27.52;;;5.50;99.90;;;;;;5053091;28;20025;-71
2020/12/19 08:04:17;;;;;;;61.83;27.23;;;5.50;99.90;;;;;;5052651;28;20033;-71
2020/12/19 08:06:47;;;;;;;60.40;26.02;;;5.50;99.90;;;;;;5062870;28;20073;-71
2020/12/19 08:09:23;;;;;;;57.92;25.58;;;5.60;99.90;;;;;;5053427;28;20040;-71
2020/12/19 08:11:50;;;;;;;59.05;26.80;;;5.60;99.90;;;;;;5051314;28;20021;-72
2020/12/19 08:14:17;;;;;;;58.85;28.00;;;5.70;99.90;;;;;;5053419;28;20036;-71
2020/12/19 08:16:44;;;;;;;53.40;25.17;;;5.70;99.90;;;;;;5053744;28;20017;-71
2020/12/19 08:19:12;;;;;;;51.83;24.77;;;5.80;99.90;;;;;;5052893;28;20112;-72
2020/12/19 08:21:38;;;;;;;51.85;23.92;;;5.90;99.90;;;;;;5053285;28;20067;-71
2020/12/19 08:24:05;;;;;;;49.75;23.65;;;5.80;99.90;;;;;;5051931;28;20033;-72
2020/12/19 08:26:32;;;;;;;51.58;24.17;;;5.90;99.90;;;;;;5051829;28;20416;-72
2020/12/19 08:29:06;;;;;;;49.53;24.77;;;6.00;99.90;;;;;;5051181;28;20041;-71
2020/12/19 08:31:38;;;;;;;52.70;25.08;;;6.00;99.90;;;;;;5053181;28;20082;-72
2020/12/19 08:34:09;;;;;;;53.53;27.00;;;6.10;99.90;;;;;;5052077;28;20052;-71
2020/12/19 08:36:35;;;;;;;55.08;27.20;;;6.10;99.90;;;;;;5052165;28;20462;-72
2020/12/19 08:39:17;;;;;;;54.72;25.58;;;6.20;99.90;;;;;;5053990;28;20024;-71
2020/12/19 08:41:44;;;;;;;59.35;26.67;;;6.20;99.90;;;;;;5051125;28;20033;-71
2020/12/19 08:44:26;;;;;;;67.18;26.98;;;6.20;99.90;;;;;;5056432;28;20025;-72
2020/12/19 08:47:02;;;;;;;54.88;23.92;;;6.20;99.90;;;;;;5051696;28;20078;-72
2020/12/19 08:49:28;;;;;;;52.63;24.85;;;6.20;99.90;;;;;;5052238;28;20041;-72
2020/12/19 08:51:54;;;;;;;52.72;25.20;;;6.30;99.90;;;;;;5051571;28;20558;-72
2020/12/19 08:54:22;;;;;;;50.47;25.63;;;6.30;99.90;;;;;;5051933;28;20033;-72
2020/12/19 08:56:49;;;;;;;52.28;25.67;;;6.40;99.90;;;;;;5057201;28;20110;-72
2020/12/19 08:59:26;;;;;;;53.42;26.77;;;6.50;99.90;;;;;;5053532;28;20021;-72
2020/12/19 09:01:56;;;;;;;50.25;25.25;;;6.50;99.90;;;;;;5059402;28;20525;-73
2020/12/19 09:04:22;;;;;;;55.63;25.77;;;6.60;99.90;;;;;;5049551;28;20024;-71
2020/12/19 09:06:50;;;;;;;58.60;26.30;;;6.70;99.90;;;;;;5058007;28;20032;-74
2020/12/19 09:09:27;;;;;;;60.72;27.45;;;6.60;99.90;;;;;;5056977;28;20550;-72
2020/12/19 09:12:14;;;;;;;54.95;25.05;;;6.70;99.90;;;;;;5056206;28;20378;-73
2020/12/19 09:14:40;;;;;;;50.58;23.88;;;6.70;99.90;;;;;;5054845;28;20032;-73
2020/12/19 09:17:05;;;;;;;56.17;26.65;;;6.70;99.90;;;;;;5052580;28;20027;-72
2020/12/19 09:19:32;;;;;;;58.83;25.40;;;6.80;99.90;;;;;;5052281;28;20621;-73
2020/12/19 09:22:00;;;;;;;47.85;24.88;;;6.90;99.90;;;;;;5052673;28;20120;-72
2020/12/19 09:24:27;;;;;;;52.50;26.90;;;6.90;99.90;;;;;;5053322;28;20025;-73
2020/12/19 09:26:53;;;;;;;51.88;25.00;;;7.00;99.90;;;;;;5051326;28;20029;-73
2020/12/19 09:29:19;;;;;;;64.65;28.60;;;7.00;99.90;;;;;;5051566;28;20548;-72
2020/12/19 09:31:44;;;;;;;69.22;31.08;;;7.10;99.90;;;;;;5049947;28;20039;-73
2020/12/19 09:34:10;;;;;;;59.90;28.23;;;7.20;99.90;;;;;;5052683;28;20036;-72
2020/12/19 09:36:36;;;;;;;42.97;23.13;;;7.20;99.90;;;;;;5054524;28;20413;-73
2020/12/19 09:39:03;;;;;;;85.13;31.98;;;7.40;99.90;;;;;;5051553;28;20043;-73
2020/12/19 09:41:29;;;;;;;63.70;30.08;;;7.40;99.90;;;;;;5065000;28;20033;-73
2020/12/19 09:43:55;;;;;;;54.67;27.52;;;7.50;99.90;;;;;;5052688;28;20033;-73
2020/12/19 09:46:20;;;;;;;49.08;25.20;;;7.60;99.90;;;;;;5054982;28;20031;-73
2020/12/19 09:48:46;;;;;;;43.08;22.23;;;7.70;99.90;;;;;;5056854;28;20147;-74
2020/12/19 09:51:12;;;;;;;49.35;25.30;;;7.80;99.90;;;;;;5065311;28;20462;-73
2020/12/19 09:53:37;;;;;;;48.25;23.58;;;7.90;99.90;;;;;;5050794;28;20029;-73
2020/12/19 09:56:04;;;;;;;42.88;21.23;;;8.00;99.90;;;;;;5049673;28;20056;-73
2020/12/19 09:58:30;;;;;;;31.52;18.25;;;8.10;99.90;;;;;;5053159;28;20542;-73
2020/12/19 10:00:55;;;;;;;25.30;14.43;;;8.20;99.90;;;;;;5051261;28;20086;-73
2020/12/19 10:03:21;;;;;;;17.92;11.68;;;8.50;99.90;;;;;;5054474;28;20021;-73
2020/12/19 10:05:47;;;;;;;16.95;11.07;;;8.80;99.90;;;;;;5052463;28;20021;-73
2020/12/19 10:08:14;;;;;;;16.95;9.45;;;8.90;99.90;;;;;;5051223;28;20378;-74
2020/12/19 10:10:43;;;;;;;11.68;8.20;;;9.20;99.90;;;;;;5052591;28;20082;-74
2020/12/19 10:13:10;;;;;;;11.52;8.27;;;9.20;99.90;;;;;;5051777;28;20074;-74
2020/12/19 10:15:35;;;;;;;16.17;8.30;;;9.30;99.90;;;;;;5050827;28;20163;-74
2020/12/19 10:18:01;;;;;;;12.73;7.50;;;9.50;99.90;;;;;;5051972;28;20111;-73
2020/12/19 10:20:27;;;;;;;10.55;7.47;;;9.50;99.90;;;;;;5059707;28;20013;-74
2020/12/19 10:22:52;;;;;;;11.95;6.68;;;9.60;99.90;;;;;;5048525;28;20040;-72
2020/12/19 10:25:18;;;;;;;11.45;7.75;;;9.70;99.90;;;;;;5049442;28;20028;-73
2020/12/19 10:27:43;;;;;;;16.08;8.02;;;9.80;99.90;;;;;;5051157;28;20036;-74
2020/12/19 10:30:09;;;;;;;12.73;8.15;;;9.80;99.90;;;;;;5053141;28;20013;-73
2020/12/19 10:32:35;;;;;;;10.15;7.07;;;9.90;99.90;;;;;;5050856;28;20389;-74
2020/12/19 10:35:06;;;;;;;6.82;5.55;;;10.20;99.90;;;;;;5055301;28;20373;-74
2020/12/19 10:37:35;;;;;;;9.30;6.43;;;10.40;99.90;;;;;;5053249;28;20017;-74
2020/12/19 10:40:01;;;;;;;8.10;5.45;;;10.50;99.90;;;;;;5050793;28;20040;-74
2020/12/19 10:42:27;;;;;;;7.82;5.00;;;10.50;99.90;;;;;;5050853;28;20028;-74
2020/12/19 10:44:53;;;;;;;9.32;4.93;;;10.60;99.90;;;;;;5052773;28;20021;-74
2020/12/19 10:47:18;;;;;;;11.15;6.05;;;10.60;99.90;;;;;;5052468;28;20486;-73
2020/12/19 10:49:44;;;;;;;8.13;4.85;;;10.60;99.90;;;;;;5050516;28;20573;-74
2020/12/19 10:52:10;;;;;;;9.35;4.97;;;10.80;99.90;;;;;;5050126;28;20121;-73
2020/12/19 10:54:35;;;;;;;8.38;5.03;;;10.90;99.90;;;;;;5051720;28;20044;-75
2020/12/19 10:57:01;;;;;;;7.85;4.75;;;10.80;99.90;;;;;;5053204;28;20057;-74
2020/12/19 10:59:30;;;;;;;8.68;4.95;;;10.90;99.90;;;;;;5057712;28;20111;-74
2020/12/19 11:01:56;;;;;;;6.88;4.80;;;10.80;99.90;;;;;;5053171;28;20481;-74
2020/12/19 11:04:22;;;;;;;7.72;5.22;;;10.90;99.90;;;;;;5053817;28;20128;-74
2020/12/19 11:06:49;;;;;;;5.55;3.85;;;11.10;99.90;;;;;;5053920;28;20452;-74
2020/12/19 11:09:14;;;;;;;6.10;4.45;;;11.10;99.90;;;;;;5058401;28;20048;-72
2020/12/19 11:11:40;;;;;;;8.93;4.75;;;11.20;99.90;;;;;;5066811;28;20025;-74
2020/12/19 11:14:06;;;;;;;8.48;4.65;;;11.20;99.90;;;;;;5057616;28;20108;-74
2020/12/19 11:16:32;;;;;;;8.02;4.20;;;11.20;99.90;;;;;;5059727;28;20044;-74
2020/12/19 11:18:57;;;;;;;5.40;3.38;;;11.20;99.90;;;;;;5052974;28;20452;-75
2020/12/19 11:21:24;;;;;;;7.35;3.67;;;11.10;99.90;;;;;;5059510;28;20510;-75
2020/12/19 11:23:50;;;;;;;8.05;3.85;;;11.20;99.90;;;;;;5057501;28;21094;-74
2020/12/19 11:26:20;;;;;;;5.00;3.50;;;11.20;99.90;;;;;;5057018;28;20049;-74
2020/12/19 11:28:53;;;;;;;5.75;3.60;;;11.20;99.90;;;;;;5053633;28;20115;-73
2020/12/19 11:31:28;;;;;;;4.05;3.53;;;11.30;99.90;;;;;;5053965;28;20066;-74
2020/12/19 11:33:55;;;;;;;6.82;3.25;;;11.30;99.90;;;;;;5052066;28;20121;-74
2020/12/19 11:36:22;;;;;;;3.95;3.05;;;11.30;99.90;;;;;;5042819;28;20113;-74
2020/12/19 11:38:58;;;;;;;3.80;3.15;;;11.30;99.90;;;;;;5057019;28;20060;-74
2020/12/19 11:41:25;;;;;;;5.60;3.55;;;11.30;99.90;;;;;;5052116;28;20102;-74
2020/12/19 11:43:51;;;;;;;5.20;3.50;;;11.40;99.90;;;;;;5053249;28;20474;-74
2020/12/19 11:46:17;;;;;;;4.65;3.70;;;11.40;99.90;;;;;;5056413;28;20036;-74
2020/12/19 11:48:43;;;;;;;6.38;3.97;;;11.40;99.90;;;;;;5051277;28;20045;-74
2020/12/19 11:51:09;;;;;;;4.38;3.05;;;11.50;99.90;;;;;;5051421;28;20070;-75
2020/12/19 11:53:35;;;;;;;5.72;2.85;;;11.50;99.90;;;;;;5048819;28;20033;-73
2020/12/19 11:56:04;;;;;;;5.03;3.65;;;11.60;99.90;;;;;;5054291;28;20021;-73
2020/12/19 11:58:31;;;;;;;6.50;4.57;;;11.60;99.90;;;;;;5050310;28;20118;-74
2020/12/19 12:00:56;;;;;;;6.95;4.47;;;11.80;99.90;;;;;;5059617;28;20087;-73
2020/12/19 12:03:22;;;;;;;9.48;8.68;;;11.70;99.90;;;;;;5050021;28;20025;-74
2020/12/19 12:05:48;;;;;;;10.80;8.40;;;11.80;99.90;;;;;;5052760;28;20029;-74
2020/12/19 12:08:13;;;;;;;10.82;9.73;;;11.80;99.90;;;;;;5051905;28;20040;-73
2020/12/19 12:10:39;;;;;;;4.38;3.97;;;11.70;99.90;;;;;;5054358;28;20029;-73
2020/12/19 12:13:05;;;;;;;3.10;2.75;;;11.70;99.90;;;;;;5052577;28;20029;-75
2020/12/19 12:15:30;;;;;;;12.30;3.92;;;11.80;99.90;;;;;;5055416;28;20037;-76
2020/12/19 12:17:56;;;;;;;5.85;3.53;;;11.80;99.90;;;;;;5057405;28;20025;-76
2020/12/19 12:20:21;;;;;;;7.57;4.00;;;11.70;99.90;;;;;;5065867;28;20029;-75
2020/12/19 12:22:47;;;;;;;7.65;5.32;;;11.80;99.90;;;;;;5061421;28;20116;-75
2020/12/19 12:25:13;;;;;;;5.28;4.10;;;11.80;99.90;;;;;;5055640;28;20028;-75
2020/12/19 12:27:39;;;;;;;4.40;3.50;;;11.80;99.90;;;;;;5061631;28;20051;-76
2020/12/19 12:30:05;;;;;;;6.20;3.17;;;11.80;99.90;;;;;;5055462;28;20497;-75
2020/12/19 12:32:31;;;;;;;5.20;3.28;;;11.80;99.90;;;;;;5063221;28;20009;-75
2020/12/19 12:34:57;;;;;;;4.68;3.15;;;11.80;99.90;;;;;;5059525;28;20033;-75
2020/12/19 12:37:23;;;;;;;5.18;3.20;;;11.80;99.90;;;;;;5056676;28;20685;-73
2020/12/19 12:39:48;;;;;;;7.07;3.40;;;11.80;99.90;;;;;;5060037;28;20485;-74
2020/12/19 12:42:22;;;;;;;4.18;3.13;;;11.80;99.90;;;;;;5057403;28;20037;-74